sensor_id;sensor_type;location;lat;lon;timestamp;P1;durP1;ratioP1;P2;durP2;ratioP2
11338;SDS011;5724;42.684;23.252;2023-03-01T00:01:02;4.73;;;4.43;;
11338;SDS011;5724;42.684;23.252;2023-03-01T00:03:48;4.80;;;4.50;;
11338;SDS011;5724;42.684;23.252;2023-03-01T00:06:13;4.27;;;4.07;;
11338;SDS011;5724;42.684;23.252;2023-03-01T00:08:39;4.47;;;4.27;;
11338;SDS011;5724;42.684;23.252;2023-03-01T00:13:33;4.83;;;4.53;;
11338;SDS011;5724;42.684;23.252;2023-03-01T00:16:01;5.00;;;4.70;;
11338;SDS011;5724;42.684;23.252;2023-03-01T00:18:31;4.80;;;4.50;;
11338;SDS011;5724;42.684;23.252;2023-03-01T00:20:57;4.83;;;4.57;;
11338;SDS011;5724;42.684;23.252;2023-03-01T00:23:22;5.10;;;4.60;;
11338;SDS011;5724;42.684;23.252;2023-03-01T00:25:48;5.53;;;5.23;;
11338;SDS011;5724;42.684;23.252;2023-03-01T00:28:15;5.60;;;5.30;;
11338;SDS011;5724;42.684;23.252;2023-03-01T00:30:41;5.50;;;5.10;;
11338;SDS011;5724;42.684;23.252;2023-03-01T00:33:06;5.80;;;5.50;;
11338;SDS011;5724;42.684;23.252;2023-03-01T00:35:32;5.13;;;4.93;;
11338;SDS011;5724;42.684;23.252;2023-03-01T00:37:58;4.90;;;4.70;;
11338;SDS011;5724;42.684;23.252;2023-03-01T00:40:24;4.63;;;4.43;;
11338;SDS011;5724;42.684;23.252;2023-03-01T00:42:50;4.30;;;4.10;;
11338;SDS011;5724;42.684;23.252;2023-03-01T00:45:16;4.97;;;4.67;;
11338;SDS011;5724;42.684;23.252;2023-03-01T00:47:42;4.57;;;4.37;;
11338;SDS011;5724;42.684;23.252;2023-03-01T00:50:08;4.23;;;4.03;;
11338;SDS011;5724;42.684;23.252;2023-03-01T00:52:35;4.57;;;4.37;;
11338;SDS011;5724;42.684;23.252;2023-03-01T00:55:00;4.40;;;4.13;;
11338;SDS011;5724;42.684;23.252;2023-03-01T00:57:25;4.53;;;4.23;;
11338;SDS011;5724;42.684;23.252;2023-03-01T00:59:51;5.13;;;4.83;;
11338;SDS011;5724;42.684;23.252;2023-03-01T01:02:17;4.93;;;4.63;;
11338;SDS011;5724;42.684;23.252;2023-03-01T01:04:44;4.60;;;4.30;;
11338;SDS011;5724;42.684;23.252;2023-03-01T01:07:10;4.70;;;4.30;;
11338;SDS011;5724;42.684;23.252;2023-03-01T01:09:36;4.27;;;4.07;;
11338;SDS011;5724;42.684;23.252;2023-03-01T01:12:02;4.30;;;4.10;;
11338;SDS011;5724;42.684;23.252;2023-03-01T01:14:28;4.03;;;3.83;;
11338;SDS011;5724;42.684;23.252;2023-03-01T01:16:53;3.50;;;3.40;;
11338;SDS011;5724;42.684;23.252;2023-03-01T01:19:19;2.83;;;2.73;;
11338;SDS011;5724;42.684;23.252;2023-03-01T01:21:44;3.17;;;3.07;;
11338;SDS011;5724;42.684;23.252;2023-03-01T01:24:10;3.20;;;3.10;;
11338;SDS011;5724;42.684;23.252;2023-03-01T01:26:36;2.80;;;2.70;;
11338;SDS011;5724;42.684;23.252;2023-03-01T01:29:03;3.13;;;3.03;;
11338;SDS011;5724;42.684;23.252;2023-03-01T01:31:30;3.10;;;3.00;;
11338;SDS011;5724;42.684;23.252;2023-03-01T01:33:56;4.73;;;4.47;;
11338;SDS011;5724;42.684;23.252;2023-03-01T01:36:24;4.13;;;3.93;;
11338;SDS011;5724;42.684;23.252;2023-03-01T01:38:50;3.30;;;3.20;;
11338;SDS011;5724;42.684;23.252;2023-03-01T01:41:16;2.67;;;2.57;;
11338;SDS011;5724;42.684;23.252;2023-03-01T01:43:47;2.70;;;2.60;;
11338;SDS011;5724;42.684;23.252;2023-03-01T01:49:00;2.00;;;2.00;;
11338;SDS011;5724;42.684;23.252;2023-03-01T01:51:30;2.37;;;2.27;;
11338;SDS011;5724;42.684;23.252;2023-03-01T01:54:04;2.30;;;2.20;;
11338;SDS011;5724;42.684;23.252;2023-03-01T01:56:34;1.93;;;1.93;;
11338;SDS011;5724;42.684;23.252;2023-03-01T01:59:04;2.03;;;1.97;;
11338;SDS011;5724;42.684;23.252;2023-03-01T02:01:30;1.73;;;1.73;;
11338;SDS011;5724;42.684;23.252;2023-03-01T02:03:55;1.90;;;1.90;;
11338;SDS011;5724;42.684;23.252;2023-03-01T02:06:22;1.70;;;1.60;;
11338;SDS011;5724;42.684;23.252;2023-03-01T02:08:54;1.87;;;1.87;;
11338;SDS011;5724;42.684;23.252;2023-03-01T02:11:22;1.80;;;1.80;;
11338;SDS011;5724;42.684;23.252;2023-03-01T02:13:48;1.73;;;1.73;;
11338;SDS011;5724;42.684;23.252;2023-03-01T02:16:15;1.60;;;1.60;;
11338;SDS011;5724;42.684;23.252;2023-03-01T02:18:42;1.73;;;1.73;;
11338;SDS011;5724;42.684;23.252;2023-03-01T02:24:09;1.60;;;1.60;;
11338;SDS011;5724;42.684;23.252;2023-03-01T02:26:56;1.40;;;1.40;;
11338;SDS011;5724;42.684;23.252;2023-03-01T02:29:23;1.50;;;1.50;;
11338;SDS011;5724;42.684;23.252;2023-03-01T02:31:50;1.60;;;1.60;;
11338;SDS011;5724;42.684;23.252;2023-03-01T02:34:23;1.60;;;1.60;;
11338;SDS011;5724;42.684;23.252;2023-03-01T02:36:56;1.50;;;1.50;;
11338;SDS011;5724;42.684;23.252;2023-03-01T02:39:48;1.23;;;1.23;;
11338;SDS011;5724;42.684;23.252;2023-03-01T02:42:17;1.60;;;1.60;;
11338;SDS011;5724;42.684;23.252;2023-03-01T02:44:48;1.50;;;1.50;;
11338;SDS011;5724;42.684;23.252;2023-03-01T02:47:14;1.97;;;1.97;;
11338;SDS011;5724;42.684;23.252;2023-03-01T02:49:40;1.80;;;1.70;;
11338;SDS011;5724;42.684;23.252;2023-03-01T02:54:41;2.17;;;2.10;;
11338;SDS011;5724;42.684;23.252;2023-03-01T02:57:13;1.90;;;1.90;;
11338;SDS011;5724;42.684;23.252;2023-03-01T02:59:39;1.93;;;1.93;;
11338;SDS011;5724;42.684;23.252;2023-03-01T03:02:06;1.90;;;1.90;;
11338;SDS011;5724;42.684;23.252;2023-03-01T03:04:32;2.17;;;2.17;;
11338;SDS011;5724;42.684;23.252;2023-03-01T03:06:58;2.40;;;2.30;;
11338;SDS011;5724;42.684;23.252;2023-03-01T03:09:24;2.63;;;2.43;;
11338;SDS011;5724;42.684;23.252;2023-03-01T03:11:49;2.10;;;2.10;;
11338;SDS011;5724;42.684;23.252;2023-03-01T03:14:15;2.70;;;2.60;;
11338;SDS011;5724;42.684;23.252;2023-03-01T03:16:42;2.80;;;2.70;;
11338;SDS011;5724;42.684;23.252;2023-03-01T03:19:09;2.83;;;2.73;;
11338;SDS011;5724;42.684;23.252;2023-03-01T03:21:35;2.73;;;2.63;;
11338;SDS011;5724;42.684;23.252;2023-03-01T03:24:01;3.17;;;3.07;;
11338;SDS011;5724;42.684;23.252;2023-03-01T03:26:27;2.67;;;2.57;;
11338;SDS011;5724;42.684;23.252;2023-03-01T03:28:53;3.10;;;3.00;;
11338;SDS011;5724;42.684;23.252;2023-03-01T03:31:18;3.20;;;3.10;;
11338;SDS011;5724;42.684;23.252;2023-03-01T03:33:44;3.63;;;3.43;;
11338;SDS011;5724;42.684;23.252;2023-03-01T03:36:09;3.70;;;3.50;;
11338;SDS011;5724;42.684;23.252;2023-03-01T03:38:43;3.63;;;3.53;;
11338;SDS011;5724;42.684;23.252;2023-03-01T03:41:09;4.00;;;3.80;;
11338;SDS011;5724;42.684;23.252;2023-03-01T03:43:36;3.67;;;3.57;;
11338;SDS011;5724;42.684;23.252;2023-03-01T03:46:03;3.93;;;3.73;;
11338;SDS011;5724;42.684;23.252;2023-03-01T03:48:35;4.00;;;3.80;;
11338;SDS011;5724;42.684;23.252;2023-03-01T03:51:02;3.93;;;3.67;;
11338;SDS011;5724;42.684;23.252;2023-03-01T03:53:31;3.90;;;3.70;;
11338;SDS011;5724;42.684;23.252;2023-03-01T03:55:56;3.50;;;3.30;;
11338;SDS011;5724;42.684;23.252;2023-03-01T03:58:23;3.80;;;3.60;;
11338;SDS011;5724;42.684;23.252;2023-03-01T04:00:54;3.33;;;3.23;;
11338;SDS011;5724;42.684;23.252;2023-03-01T04:03:21;3.50;;;3.30;;
11338;SDS011;5724;42.684;23.252;2023-03-01T04:05:47;4.30;;;4.00;;
11338;SDS011;5724;42.684;23.252;2023-03-01T04:08:15;3.57;;;3.37;;
11338;SDS011;5724;42.684;23.252;2023-03-01T04:10:43;3.70;;;3.50;;
11338;SDS011;5724;42.684;23.252;2023-03-01T04:13:10;4.17;;;3.97;;
11338;SDS011;5724;42.684;23.252;2023-03-01T04:15:37;4.13;;;3.93;;
11338;SDS011;5724;42.684;23.252;2023-03-01T04:18:04;3.83;;;3.63;;
11338;SDS011;5724;42.684;23.252;2023-03-01T04:20:31;3.93;;;3.73;;
11338;SDS011;5724;42.684;23.252;2023-03-01T04:23:10;3.80;;;3.60;;
11338;SDS011;5724;42.684;23.252;2023-03-01T04:25:57;4.40;;;4.20;;
11338;SDS011;5724;42.684;23.252;2023-03-01T04:28:25;4.50;;;4.20;;
11338;SDS011;5724;42.684;23.252;2023-03-01T04:31:01;4.13;;;3.93;;
11338;SDS011;5724;42.684;23.252;2023-03-01T04:33:41;3.90;;;3.70;;
11338;SDS011;5724;42.684;23.252;2023-03-01T04:36:08;3.57;;;3.37;;
11338;SDS011;5724;42.684;23.252;2023-03-01T04:38:34;4.20;;;4.00;;
11338;SDS011;5724;42.684;23.252;2023-03-01T04:41:02;3.40;;;3.20;;
11338;SDS011;5724;42.684;23.252;2023-03-01T04:43:32;3.70;;;3.50;;
11338;SDS011;5724;42.684;23.252;2023-03-01T04:46:03;3.87;;;3.67;;
11338;SDS011;5724;42.684;23.252;2023-03-01T04:48:31;3.93;;;3.73;;
11338;SDS011;5724;42.684;23.252;2023-03-01T04:50:58;4.00;;;3.73;;
11338;SDS011;5724;42.684;23.252;2023-03-01T04:53:24;3.30;;;3.20;;
11338;SDS011;5724;42.684;23.252;2023-03-01T04:55:50;3.47;;;3.27;;
11338;SDS011;5724;42.684;23.252;2023-03-01T04:58:16;3.60;;;3.40;;
11338;SDS011;5724;42.684;23.252;2023-03-01T05:00:41;4.03;;;3.83;;
11338;SDS011;5724;42.684;23.252;2023-03-01T05:03:08;4.10;;;3.90;;
11338;SDS011;5724;42.684;23.252;2023-03-01T05:05:34;3.67;;;3.37;;
11338;SDS011;5724;42.684;23.252;2023-03-01T05:08:05;3.60;;;3.30;;
11338;SDS011;5724;42.684;23.252;2023-03-01T05:10:32;3.20;;;3.10;;
11338;SDS011;5724;42.684;23.252;2023-03-01T05:13:00;3.60;;;3.30;;
11338;SDS011;5724;42.684;23.252;2023-03-01T05:15:26;3.10;;;3.00;;
11338;SDS011;5724;42.684;23.252;2023-03-01T05:17:56;3.10;;;3.00;;
11338;SDS011;5724;42.684;23.252;2023-03-01T05:20:24;3.07;;;2.87;;
11338;SDS011;5724;42.684;23.252;2023-03-01T05:22:57;3.70;;;3.50;;
11338;SDS011;5724;42.684;23.252;2023-03-01T05:25:24;3.83;;;3.63;;
11338;SDS011;5724;42.684;23.252;2023-03-01T05:27:50;4.30;;;4.00;;
11338;SDS011;5724;42.684;23.252;2023-03-01T05:30:16;4.43;;;4.23;;
11338;SDS011;5724;42.684;23.252;2023-03-01T05:32:43;5.63;;;5.23;;
11338;SDS011;5724;42.684;23.252;2023-03-01T05:35:14;4.40;;;4.10;;
11338;SDS011;5724;42.684;23.252;2023-03-01T05:37:45;7.07;;;6.57;;
11338;SDS011;5724;42.684;23.252;2023-03-01T05:40:12;5.03;;;4.60;;
11338;SDS011;5724;42.684;23.252;2023-03-01T05:42:53;3.80;;;3.60;;
11338;SDS011;5724;42.684;23.252;2023-03-01T05:45:20;5.60;;;4.47;;
11338;SDS011;5724;42.684;23.252;2023-03-01T05:47:47;4.03;;;3.83;;
11338;SDS011;5724;42.684;23.252;2023-03-01T05:50:18;3.43;;;3.30;;
11338;SDS011;5724;42.684;23.252;2023-03-01T05:52:50;3.77;;;3.57;;
11338;SDS011;5724;42.684;23.252;2023-03-01T05:55:18;4.20;;;3.90;;
11338;SDS011;5724;42.684;23.252;2023-03-01T05:57:45;5.10;;;4.90;;
11338;SDS011;5724;42.684;23.252;2023-03-01T06:00:12;5.47;;;5.17;;
11338;SDS011;5724;42.684;23.252;2023-03-01T06:02:38;4.53;;;4.13;;
11338;SDS011;5724;42.684;23.252;2023-03-01T06:05:05;4.60;;;4.40;;
11338;SDS011;5724;42.684;23.252;2023-03-01T06:07:32;4.63;;;4.23;;
11338;SDS011;5724;42.684;23.252;2023-03-01T06:09:58;4.40;;;4.20;;
11338;SDS011;5724;42.684;23.252;2023-03-01T06:12:24;4.67;;;4.43;;
11338;SDS011;5724;42.684;23.252;2023-03-01T06:14:49;5.57;;;4.30;;
11338;SDS011;5724;42.684;23.252;2023-03-01T06:17:14;4.33;;;4.03;;
11338;SDS011;5724;42.684;23.252;2023-03-01T06:19:40;6.87;;;6.40;;
11338;SDS011;5724;42.684;23.252;2023-03-01T06:22:06;5.73;;;5.43;;
11338;SDS011;5724;42.684;23.252;2023-03-01T06:24:32;4.20;;;4.00;;
11338;SDS011;5724;42.684;23.252;2023-03-01T06:26:58;4.47;;;4.27;;
11338;SDS011;5724;42.684;23.252;2023-03-01T06:29:23;4.30;;;4.00;;
11338;SDS011;5724;42.684;23.252;2023-03-01T06:31:49;4.47;;;4.17;;
11338;SDS011;5724;42.684;23.252;2023-03-01T06:34:14;4.60;;;4.30;;
11338;SDS011;5724;42.684;23.252;2023-03-01T06:36:40;4.27;;;3.97;;
11338;SDS011;5724;42.684;23.252;2023-03-01T06:39:06;3.93;;;3.63;;
11338;SDS011;5724;42.684;23.252;2023-03-01T06:41:32;4.30;;;3.87;;
11338;SDS011;5724;42.684;23.252;2023-03-01T06:43:58;4.23;;;4.03;;
11338;SDS011;5724;42.684;23.252;2023-03-01T06:46:24;4.77;;;4.47;;
11338;SDS011;5724;42.684;23.252;2023-03-01T06:48:49;3.80;;;3.60;;
11338;SDS011;5724;42.684;23.252;2023-03-01T06:51:14;4.03;;;3.83;;
11338;SDS011;5724;42.684;23.252;2023-03-01T06:53:40;3.63;;;3.50;;
11338;SDS011;5724;42.684;23.252;2023-03-01T06:56:05;3.20;;;3.00;;
11338;SDS011;5724;42.684;23.252;2023-03-01T06:58:31;3.33;;;3.13;;
11338;SDS011;5724;42.684;23.252;2023-03-01T07:00:56;2.80;;;2.70;;
11338;SDS011;5724;42.684;23.252;2023-03-01T07:03:22;2.73;;;2.63;;
11338;SDS011;5724;42.684;23.252;2023-03-01T07:05:49;3.00;;;2.90;;
11338;SDS011;5724;42.684;23.252;2023-03-01T07:08:17;2.93;;;2.70;;
11338;SDS011;5724;42.684;23.252;2023-03-01T07:10:43;2.63;;;2.53;;
11338;SDS011;5724;42.684;23.252;2023-03-01T07:13:08;3.43;;;3.23;;
11338;SDS011;5724;42.684;23.252;2023-03-01T07:15:34;3.83;;;3.63;;
11338;SDS011;5724;42.684;23.252;2023-03-01T07:17:59;3.03;;;2.93;;
11338;SDS011;5724;42.684;23.252;2023-03-01T07:20:25;3.10;;;3.00;;
11338;SDS011;5724;42.684;23.252;2023-03-01T07:22:51;3.50;;;3.30;;
11338;SDS011;5724;42.684;23.252;2023-03-01T07:25:17;3.50;;;3.07;;
11338;SDS011;5724;42.684;23.252;2023-03-01T07:27:42;3.07;;;2.80;;
11338;SDS011;5724;42.684;23.252;2023-03-01T07:30:08;3.07;;;2.87;;
11338;SDS011;5724;42.684;23.252;2023-03-01T07:32:34;3.13;;;2.90;;
11338;SDS011;5724;42.684;23.252;2023-03-01T07:35:00;2.90;;;2.70;;
11338;SDS011;5724;42.684;23.252;2023-03-01T07:37:25;2.90;;;2.80;;
11338;SDS011;5724;42.684;23.252;2023-03-01T07:39:51;2.77;;;2.60;;
11338;SDS011;5724;42.684;23.252;2023-03-01T07:42:16;2.90;;;2.80;;
11338;SDS011;5724;42.684;23.252;2023-03-01T07:44:41;2.47;;;2.27;;
11338;SDS011;5724;42.684;23.252;2023-03-01T07:47:07;3.47;;;2.60;;
11338;SDS011;5724;42.684;23.252;2023-03-01T07:49:32;2.60;;;2.50;;
11338;SDS011;5724;42.684;23.252;2023-03-01T07:51:58;2.83;;;2.70;;
11338;SDS011;5724;42.684;23.252;2023-03-01T07:54:23;3.17;;;2.97;;
11338;SDS011;5724;42.684;23.252;2023-03-01T07:56:49;4.77;;;2.43;;
11338;SDS011;5724;42.684;23.252;2023-03-01T07:59:14;3.37;;;3.07;;
11338;SDS011;5724;42.684;23.252;2023-03-01T08:01:40;5.40;;;3.00;;
11338;SDS011;5724;42.684;23.252;2023-03-01T08:04:07;3.33;;;3.00;;
11338;SDS011;5724;42.684;23.252;2023-03-01T08:06:34;3.17;;;2.97;;
11338;SDS011;5724;42.684;23.252;2023-03-01T08:09:01;3.33;;;3.00;;
11338;SDS011;5724;42.684;23.252;2023-03-01T08:11:26;3.50;;;3.20;;
11338;SDS011;5724;42.684;23.252;2023-03-01T08:13:55;2.50;;;2.30;;
11338;SDS011;5724;42.684;23.252;2023-03-01T08:16:21;3.03;;;2.83;;
11338;SDS011;5724;42.684;23.252;2023-03-01T08:18:47;3.40;;;3.10;;
11338;SDS011;5724;42.684;23.252;2023-03-01T08:21:14;3.20;;;2.83;;
11338;SDS011;5724;42.684;23.252;2023-03-01T08:23:42;2.90;;;2.70;;
11338;SDS011;5724;42.684;23.252;2023-03-01T08:26:13;2.67;;;2.57;;
11338;SDS011;5724;42.684;23.252;2023-03-01T08:28:40;3.70;;;2.97;;
11338;SDS011;5724;42.684;23.252;2023-03-01T08:31:25;5.47;;;3.70;;
11338;SDS011;5724;42.684;23.252;2023-03-01T08:33:52;3.73;;;3.50;;
11338;SDS011;5724;42.684;23.252;2023-03-01T08:36:28;3.97;;;3.73;;
11338;SDS011;5724;42.684;23.252;2023-03-01T08:38:55;4.00;;;3.70;;
11338;SDS011;5724;42.684;23.252;2023-03-01T08:41:20;4.70;;;4.37;;
11338;SDS011;5724;42.684;23.252;2023-03-01T08:43:46;4.80;;;4.50;;
11338;SDS011;5724;42.684;23.252;2023-03-01T08:46:12;5.20;;;4.80;;
11338;SDS011;5724;42.684;23.252;2023-03-01T08:48:38;4.80;;;4.57;;
11338;SDS011;5724;42.684;23.252;2023-03-01T08:51:08;4.00;;;3.70;;
11338;SDS011;5724;42.684;23.252;2023-03-01T08:53:35;4.40;;;4.20;;
11338;SDS011;5724;42.684;23.252;2023-03-01T08:56:00;5.10;;;4.70;;
11338;SDS011;5724;42.684;23.252;2023-03-01T08:58:27;4.00;;;3.80;;
11338;SDS011;5724;42.684;23.252;2023-03-01T09:00:53;4.13;;;3.77;;
11338;SDS011;5724;42.684;23.252;2023-03-01T09:03:19;3.20;;;3.00;;
11338;SDS011;5724;42.684;23.252;2023-03-01T09:05:44;3.10;;;2.90;;
11338;SDS011;5724;42.684;23.252;2023-03-01T09:08:11;2.97;;;2.87;;
11338;SDS011;5724;42.684;23.252;2023-03-01T09:10:39;4.47;;;2.90;;
11338;SDS011;5724;42.684;23.252;2023-03-01T09:13:05;3.20;;;3.00;;
11338;SDS011;5724;42.684;23.252;2023-03-01T09:15:30;2.90;;;2.77;;
11338;SDS011;5724;42.684;23.252;2023-03-01T09:17:55;3.30;;;3.03;;
11338;SDS011;5724;42.684;23.252;2023-03-01T09:20:21;3.17;;;3.07;;
11338;SDS011;5724;42.684;23.252;2023-03-01T09:22:46;3.70;;;3.40;;
11338;SDS011;5724;42.684;23.252;2023-03-01T09:25:12;3.33;;;3.10;;
11338;SDS011;5724;42.684;23.252;2023-03-01T09:27:37;2.70;;;2.60;;
11338;SDS011;5724;42.684;23.252;2023-03-01T09:30:03;3.13;;;2.93;;
11338;SDS011;5724;42.684;23.252;2023-03-01T09:32:32;2.97;;;2.87;;
11338;SDS011;5724;42.684;23.252;2023-03-01T09:34:58;3.00;;;2.80;;
11338;SDS011;5724;42.684;23.252;2023-03-01T09:37:28;3.20;;;2.97;;
11338;SDS011;5724;42.684;23.252;2023-03-01T09:39:54;3.23;;;3.00;;
11338;SDS011;5724;42.684;23.252;2023-03-01T09:42:19;2.90;;;2.70;;
11338;SDS011;5724;42.684;23.252;2023-03-01T09:44:48;5.60;;;3.20;;
11338;SDS011;5724;42.684;23.252;2023-03-01T09:47:33;3.47;;;3.10;;
11338;SDS011;5724;42.684;23.252;2023-03-01T09:50:05;2.80;;;2.50;;
11338;SDS011;5724;42.684;23.252;2023-03-01T09:55:13;2.97;;;2.67;;
11338;SDS011;5724;42.684;23.252;2023-03-01T09:57:53;2.28;;;2.17;;
11338;SDS011;5724;42.684;23.252;2023-03-01T10:05:34;2.33;;;2.23;;
11338;SDS011;5724;42.684;23.252;2023-03-01T10:08:29;2.87;;;2.07;;
11338;SDS011;5724;42.684;23.252;2023-03-01T10:11:03;2.73;;;2.60;;
11338;SDS011;5724;42.684;23.252;2023-03-01T10:13:46;2.30;;;2.20;;
11338;SDS011;5724;42.684;23.252;2023-03-01T10:16:22;2.70;;;2.60;;
11338;SDS011;5724;42.684;23.252;2023-03-01T10:18:55;2.30;;;2.20;;
11338;SDS011;5724;42.684;23.252;2023-03-01T10:21:26;1.90;;;1.80;;
11338;SDS011;5724;42.684;23.252;2023-03-01T10:23:53;2.30;;;2.20;;
11338;SDS011;5724;42.684;23.252;2023-03-01T10:26:25;2.80;;;2.60;;
11338;SDS011;5724;42.684;23.252;2023-03-01T10:29:06;2.40;;;2.30;;
11338;SDS011;5724;42.684;23.252;2023-03-01T10:31:41;2.37;;;2.17;;
11338;SDS011;5724;42.684;23.252;2023-03-01T10:34:14;2.57;;;2.47;;
11338;SDS011;5724;42.684;23.252;2023-03-01T10:36:44;3.47;;;3.27;;
11338;SDS011;5724;42.684;23.252;2023-03-01T10:39:16;4.60;;;2.80;;
11338;SDS011;5724;42.684;23.252;2023-03-01T10:44:45;3.53;;;3.27;;
11338;SDS011;5724;42.684;23.252;2023-03-01T10:47:16;3.97;;;3.67;;
11338;SDS011;5724;42.684;23.252;2023-03-01T10:49:54;8.40;;;7.30;;
11338;SDS011;5724;42.684;23.252;2023-03-01T10:52:22;6.20;;;5.70;;
11338;SDS011;5724;42.684;23.252;2023-03-01T10:57:39;3.70;;;3.50;;
11338;SDS011;5724;42.684;23.252;2023-03-01T11:02:47;3.35;;;3.15;;
11338;SDS011;5724;42.684;23.252;2023-03-01T11:05:20;3.10;;;3.00;;
11338;SDS011;5724;42.684;23.252;2023-03-01T11:07:52;3.42;;;3.22;;
11338;SDS011;5724;42.684;23.252;2023-03-01T11:10:26;4.30;;;3.80;;
11338;SDS011;5724;42.684;23.252;2023-03-01T11:12:53;4.45;;;4.25;;
11338;SDS011;5724;42.684;23.252;2023-03-01T11:15:30;3.92;;;3.65;;
11338;SDS011;5724;42.684;23.252;2023-03-01T11:17:56;3.67;;;3.40;;
11338;SDS011;5724;42.684;23.252;2023-03-01T11:20:35;2.80;;;2.60;;
11338;SDS011;5724;42.684;23.252;2023-03-01T11:23:05;3.47;;;2.78;;
11338;SDS011;5724;42.684;23.252;2023-03-01T11:25:36;5.40;;;3.08;;
11338;SDS011;5724;42.684;23.252;2023-03-01T11:28:05;4.53;;;2.85;;
11338;SDS011;5724;42.684;23.252;2023-03-01T11:30:38;3.63;;;2.87;;
11338;SDS011;5724;42.684;23.252;2023-03-01T11:38:39;3.00;;;2.90;;
11338;SDS011;5724;42.684;23.252;2023-03-01T11:41:08;2.92;;;2.72;;
11338;SDS011;5724;42.684;23.252;2023-03-01T11:46:33;2.92;;;2.72;;
11338;SDS011;5724;42.684;23.252;2023-03-01T12:10:53;3.47;;;3.28;;
11338;SDS011;5724;42.684;23.252;2023-03-01T12:13:46;4.10;;;3.13;;
11338;SDS011;5724;42.684;23.252;2023-03-01T12:30:16;3.88;;;3.58;;
11338;SDS011;5724;42.684;23.252;2023-03-01T12:46:49;3.78;;;3.53;;
11338;SDS011;5724;42.684;23.252;2023-03-01T12:49:31;3.75;;;3.55;;
11338;SDS011;5724;42.684;23.252;2023-03-01T12:51:59;3.33;;;3.22;;
11338;SDS011;5724;42.684;23.252;2023-03-01T12:54:35;3.20;;;3.10;;
11338;SDS011;5724;42.684;23.252;2023-03-01T12:59:59;7.72;;;3.13;;
11338;SDS011;5724;42.684;23.252;2023-03-01T13:02:47;3.88;;;3.40;;
11338;SDS011;5724;42.684;23.252;2023-03-01T13:10:39;3.65;;;3.45;;
11338;SDS011;5724;42.684;23.252;2023-03-01T13:13:19;4.05;;;3.85;;
11338;SDS011;5724;42.684;23.252;2023-03-01T13:15:49;3.58;;;3.38;;
11338;SDS011;5724;42.684;23.252;2023-03-01T13:20:48;4.15;;;3.95;;
11338;SDS011;5724;42.684;23.252;2023-03-01T13:36:45;3.80;;;3.53;;
11338;SDS011;5724;42.684;23.252;2023-03-01T13:41:56;4.25;;;3.92;;
11338;SDS011;5724;42.684;23.252;2023-03-01T13:49:41;3.30;;;3.20;;
11338;SDS011;5724;42.684;23.252;2023-03-01T13:52:13;4.63;;;4.32;;
11338;SDS011;5724;42.684;23.252;2023-03-01T13:54:56;12.43;;;5.25;;
11338;SDS011;5724;42.684;23.252;2023-03-01T13:57:24;19.17;;;7.40;;
11338;SDS011;5724;42.684;23.252;2023-03-01T13:59:54;9.27;;;5.35;;
11338;SDS011;5724;42.684;23.252;2023-03-01T14:02:20;28.75;;;8.38;;
11338;SDS011;5724;42.684;23.252;2023-03-01T14:04:55;14.35;;;6.63;;
11338;SDS011;5724;42.684;23.252;2023-03-01T14:07:22;23.60;;;7.50;;
11338;SDS011;5724;42.684;23.252;2023-03-01T14:10:02;8.88;;;5.72;;
11338;SDS011;5724;42.684;23.252;2023-03-01T14:20:43;5.25;;;4.75;;
11338;SDS011;5724;42.684;23.252;2023-03-01T14:23:21;4.53;;;4.22;;
11338;SDS011;5724;42.684;23.252;2023-03-01T14:25:51;5.90;;;4.68;;
11338;SDS011;5724;42.684;23.252;2023-03-01T14:30:53;5.13;;;4.72;;
11338;SDS011;5724;42.684;23.252;2023-03-01T14:33:22;4.97;;;4.57;;
11338;SDS011;5724;42.684;23.252;2023-03-01T14:36:07;6.18;;;5.20;;
11338;SDS011;5724;42.684;23.252;2023-03-01T14:38:42;4.82;;;4.40;;
11338;SDS011;5724;42.684;23.252;2023-03-01T14:41:13;6.55;;;4.63;;
11338;SDS011;5724;42.684;23.252;2023-03-01T14:43:41;3.88;;;3.58;;
11338;SDS011;5724;42.684;23.252;2023-03-01T14:46:17;3.90;;;3.70;;
11338;SDS011;5724;42.684;23.252;2023-03-01T14:48:44;4.70;;;4.40;;
11338;SDS011;5724;42.684;23.252;2023-03-01T14:51:09;7.22;;;4.18;;
11338;SDS011;5724;42.684;23.252;2023-03-01T14:53:37;3.83;;;3.63;;
11338;SDS011;5724;42.684;23.252;2023-03-01T14:56:02;3.55;;;3.35;;
11338;SDS011;5724;42.684;23.252;2023-03-01T14:58:28;6.32;;;3.72;;
11338;SDS011;5724;42.684;23.252;2023-03-01T15:00:57;5.55;;;5.18;;
11338;SDS011;5724;42.684;23.252;2023-03-01T15:03:27;4.13;;;3.83;;
11338;SDS011;5724;42.684;23.252;2023-03-01T15:05:58;4.05;;;3.42;;
11338;SDS011;5724;42.684;23.252;2023-03-01T15:08:26;3.30;;;3.00;;
11338;SDS011;5724;42.684;23.252;2023-03-01T15:13:28;3.20;;;2.90;;
11338;SDS011;5724;42.684;23.252;2023-03-01T15:18:45;3.17;;;3.05;;
11338;SDS011;5724;42.684;23.252;2023-03-01T15:21:20;3.30;;;3.07;;
11338;SDS011;5724;42.684;23.252;2023-03-01T15:23:56;3.30;;;3.10;;
11338;SDS011;5724;42.684;23.252;2023-03-01T15:26:30;3.20;;;3.10;;
11338;SDS011;5724;42.684;23.252;2023-03-01T15:29:00;3.77;;;3.57;;
11338;SDS011;5724;42.684;23.252;2023-03-01T15:36:44;3.40;;;3.10;;
11338;SDS011;5724;42.684;23.252;2023-03-01T15:39:26;3.50;;;3.30;;
11338;SDS011;5724;42.684;23.252;2023-03-01T15:41:58;3.63;;;3.00;;
11338;SDS011;5724;42.684;23.252;2023-03-01T15:44:27;3.90;;;3.50;;
11338;SDS011;5724;42.684;23.252;2023-03-01T15:46:55;4.60;;;3.93;;
11338;SDS011;5724;42.684;23.252;2023-03-01T15:49:35;3.93;;;3.73;;
11338;SDS011;5724;42.684;23.252;2023-03-01T15:52:04;4.20;;;3.80;;
11338;SDS011;5724;42.684;23.252;2023-03-01T15:54:35;5.63;;;3.80;;
11338;SDS011;5724;42.684;23.252;2023-03-01T15:57:03;5.07;;;4.13;;
11338;SDS011;5724;42.684;23.252;2023-03-01T15:59:28;5.17;;;3.80;;
11338;SDS011;5724;42.684;23.252;2023-03-01T16:01:54;4.60;;;4.30;;
11338;SDS011;5724;42.684;23.252;2023-03-01T16:04:19;5.47;;;5.07;;
11338;SDS011;5724;42.684;23.252;2023-03-01T16:06:48;5.13;;;4.27;;
11338;SDS011;5724;42.684;23.252;2023-03-01T16:09:20;4.73;;;4.33;;
11338;SDS011;5724;42.684;23.252;2023-03-01T16:11:49;5.07;;;4.67;;
11338;SDS011;5724;42.684;23.252;2023-03-01T16:14:16;4.83;;;4.43;;
11338;SDS011;5724;42.684;23.252;2023-03-01T16:16:42;4.83;;;4.33;;
11338;SDS011;5724;42.684;23.252;2023-03-01T16:19:08;4.17;;;3.67;;
11338;SDS011;5724;42.684;23.252;2023-03-01T16:21:35;7.47;;;4.07;;
11338;SDS011;5724;42.684;23.252;2023-03-01T16:24:00;4.73;;;3.83;;
11338;SDS011;5724;42.684;23.252;2023-03-01T16:26:26;4.67;;;4.10;;
11338;SDS011;5724;42.684;23.252;2023-03-01T16:28:54;18.17;;;9.10;;
11338;SDS011;5724;42.684;23.252;2023-03-01T16:31:21;5.27;;;4.90;;
11338;SDS011;5724;42.684;23.252;2023-03-01T16:33:47;5.27;;;4.87;;
11338;SDS011;5724;42.684;23.252;2023-03-01T16:36:15;6.30;;;5.80;;
11338;SDS011;5724;42.684;23.252;2023-03-01T16:38:42;4.80;;;4.40;;
11338;SDS011;5724;42.684;23.252;2023-03-01T16:41:12;6.73;;;5.80;;
11338;SDS011;5724;42.684;23.252;2023-03-01T16:43:39;11.20;;;7.80;;
11338;SDS011;5724;42.684;23.252;2023-03-01T16:46:12;7.30;;;6.60;;
11338;SDS011;5724;42.684;23.252;2023-03-01T16:48:39;6.87;;;5.43;;
11338;SDS011;5724;42.684;23.252;2023-03-01T16:51:06;6.93;;;4.93;;
11338;SDS011;5724;42.684;23.252;2023-03-01T16:53:32;10.77;;;6.77;;
11338;SDS011;5724;42.684;23.252;2023-03-01T16:55:58;4.00;;;3.80;;
11338;SDS011;5724;42.684;23.252;2023-03-01T16:58:24;4.40;;;4.00;;
11338;SDS011;5724;42.684;23.252;2023-03-01T17:00:51;4.27;;;4.07;;
11338;SDS011;5724;42.684;23.252;2023-03-01T17:03:22;4.90;;;3.97;;
11338;SDS011;5724;42.684;23.252;2023-03-01T17:05:49;4.27;;;3.87;;
11338;SDS011;5724;42.684;23.252;2023-03-01T17:08:15;6.33;;;4.30;;
11338;SDS011;5724;42.684;23.252;2023-03-01T17:10:43;4.03;;;3.73;;
11338;SDS011;5724;42.684;23.252;2023-03-01T17:13:09;4.53;;;4.23;;
11338;SDS011;5724;42.684;23.252;2023-03-01T17:15:39;4.10;;;3.70;;